Ralph E Plagge — WDB8741 — position and weather

sailwx.info

Track history (hours):
 
Tides and Currents Weather Stations Pressure Air Temp Water Temp Dewpoint Dewpoint Depression Visibility Wind Speed Wind Dir Waves Ship Positions

Ralph E Plagge

Owner: Ingram Barge Company LLC, Nashville, TN. More information available from US FCC via Universal Licensing System and Coast Guard Vessel Documentation Center.

Last reported at 2018-Jan-24 12:24 UTC. Time now 2018-Feb-24 08:06 UTC.
Position N 38°32' W 090°16'.
Warning: this ship's position is 30 days out of date.

Length 46 m; draft 3 m.

Type: Ship (hazmat cat B). MMSI: 366963470.

Date/timePositionNaut miles runAvg speedWind from/ knotsBaromVisibWave heightAir tempDewpointWater temp
2018-Jan-24 12:24N 38°32' W 090°16'0 0.5
2018-Jan-24 12:00N 38°32' W 090°15'0 0.0
2018-Jan-24 11:25N 38°32' W 090°15'0 0.4
2018-Jan-24 11:00N 38°32' W 090°16'0 0.0
2018-Jan-24 10:30N 38°32' W 090°16'0 0.2
2018-Jan-24 09:50N 38°32' W 090°15'0 0.1
2018-Jan-24 09:30N 38°32' W 090°15'0 0.2
2018-Jan-24 08:56N 38°32' W 090°16'1 1.5
2018-Jan-24 08:29N 38°32' W 090°15'0 0.1
2018-Jan-24 07:58N 38°32' W 090°15'0 0.0
2018-Jan-24 07:23N 38°32' W 090°15'0 0.0
2018-Jan-24 06:57N 38°32' W 090°15'0 0.0
2018-Jan-24 05:40N 38°32' W 090°15'0 0.0
2018-Jan-24 05:15N 38°32' W 090°15'0 1.6
2018-Jan-24 04:59N 38°32' W 090°15'5 3.7
2018-Jan-24 03:41N 38°36' W 090°12'1 8.1
2018-Jan-24 03:30N 38°37' W 090°11'4 7.7
2018-Jan-24 03:00N 38°41' W 090°11'1 2.0
2018-Jan-24 02:21N 38°42' W 090°11'0 0.1
2018-Jan-24 01:59N 38°42' W 090°11'1 2.7
2018-Jan-24 01:29N 38°43' W 090°10'1 2.9
2018-Jan-24 01:00N 38°45' W 090°09'2 3.9
2018-Jan-24 00:27N 38°47' W 090°08'2 5.0
2018-Jan-24 00:00N 38°49' W 090°07'3 6.2
2018-Jan-23 23:30N 38°52' W 090°08'1 1.6
2018-Jan-23 23:00N 38°52' W 090°09'0 0.2
2018-Jan-23 22:30N 38°52' W 090°09'0 0.1
2018-Jan-23 22:00N 38°52' W 090°09'0 0.0
2018-Jan-23 21:30N 38°52' W 090°09'0 0.0
2018-Jan-23 21:00N 38°52' W 090°09'0 0.2
2018-Jan-23 20:30N 38°52' W 090°09'0 0.0
2018-Jan-23 20:00N 38°52' W 090°09'0 0.0
2018-Jan-23 19:30N 38°52' W 090°09'0 0.0
2018-Jan-23 19:00N 38°52' W 090°09'0 0.0
2018-Jan-23 18:30N 38°52' W 090°09'0 0.1
2018-Jan-23 18:00N 38°52' W 090°09'1 1.3
2018-Jan-23 17:30N 38°53' W 090°10'0 0.1
2018-Jan-23 17:00N 38°53' W 090°10'0 0.0
2018-Jan-23 16:30N 38°53' W 090°10'0 0.1
2018-Jan-23 16:00N 38°53' W 090°10'0 0.0
2018-Jan-23 15:29N 38°53' W 090°10'0 0.1
2018-Jan-23 15:00N 38°53' W 090°10'1 2.4
2018-Jan-23 14:30N 38°53' W 090°11'1 3.0
2018-Jan-23 14:00N 38°54' W 090°13'0 0.1
2018-Jan-23 13:30N 38°54' W 090°13'0 0.0
2018-Jan-23 13:00N 38°54' W 090°13'0 0.0
2018-Jan-23 12:30N 38°54' W 090°13'0 0.0
2018-Jan-23 12:00N 38°54' W 090°13'0 0.0
2018-Jan-23 11:30N 38°54' W 090°13'0 0.0
2018-Jan-23 11:00N 38°54' W 090°13'0 0.0
2018-Jan-23 10:30N 38°54' W 090°13'0 0.0
2018-Jan-23 10:00N 38°54' W 090°13'0 0.0
2018-Jan-23 09:30N 38°54' W 090°13'0 0.0
2018-Jan-23 09:00N 38°54' W 090°13'0 0.0
2018-Jan-23 08:30N 38°54' W 090°13'0 0.0
2018-Jan-23 08:00N 38°54' W 090°13'0 0.0
2018-Jan-23 07:29N 38°54' W 090°13'0 0.0
2018-Jan-23 07:00N 38°54' W 090°13'0 0.0
2018-Jan-23 06:30N 38°54' W 090°13'0 0.0
2018-Jan-23 06:00N 38°54' W 090°13'0 0.0
2018-Jan-23 05:29N 38°54' W 090°13'0 0.0
2018-Jan-23 05:00N 38°54' W 090°13'0 0.0
2018-Jan-23 04:30N 38°54' W 090°13'0 0.0
2018-Jan-23 04:00N 38°54' W 090°13'0 0.0
2018-Jan-23 03:30N 38°54' W 090°13'0 0.0
2018-Jan-23 03:00N 38°54' W 090°13'0 0.0
2018-Jan-23 02:29N 38°54' W 090°13'0 0.0
2018-Jan-23 02:00N 38°54' W 090°13'0 0.0
2018-Jan-23 01:30N 38°54' W 090°13'0 0.0
2018-Jan-23 01:00N 38°54' W 090°13'0 0.0
2018-Jan-23 00:29N 38°54' W 090°13'0 0.0
2018-Jan-23 00:00N 38°54' W 090°13'0 0.0
2018-Jan-22 23:30N 38°54' W 090°13'0 0.0
2018-Jan-22 23:00N 38°54' W 090°13'0 0.0
2018-Jan-22 22:30N 38°54' W 090°13'1 2.1
2018-Jan-22 22:00N 38°55' W 090°14'1 1.4
2018-Jan-22 21:30N 38°55' W 090°15'2 3.5
2018-Jan-22 21:00N 38°55' W 090°17'3 5.4
2018-Jan-22 20:30N 38°56' W 090°20'3 5.7
2018-Jan-22 20:00N 38°58' W 090°23'2 4.3
2018-Jan-22 19:30N 38°58' W 090°26'3 5.2
2018-Jan-22 19:00N 38°58' W 090°29'2 4.4
2018-Jan-22 18:30N 38°58' W 090°32'2 4.9
2018-Jan-22 18:00N 38°59' W 090°34'2 4.4
2018-Jan-22 17:29N 39°02' W 090°34'2 3.9
2018-Jan-22 17:00N 39°04' W 090°35'2 4.5
2018-Jan-22 16:30N 39°06' W 090°36'2 4.9
2018-Jan-22 16:00N 39°08' W 090°37'3 5.1
2018-Jan-22 15:30N 39°11' W 090°36'  
Track history (hours):
 
Tides and Currents Weather Stations Pressure Air Temp Water Temp Dewpoint Dewpoint Depression Visibility Wind Speed Wind Dir Waves Ship Positions

Ralph E Plagge

Owner: Ingram Barge Company LLC, Nashville, TN. More information available from US FCC via Universal Licensing System and Coast Guard Vessel Documentation Center.

Last reported at 2018-Jan-24 12:24 UTC. Time now 2018-Feb-24 08:06 UTC.
Position N 38°32' W 090°16'.
Warning: this ship's position is 30 days out of date.

Length 46 m; draft 3 m.

Type: Ship (hazmat cat B). MMSI: 366963470.

Date/timePositionNaut miles runAvg speedWind from/ knotsBaromVisibWave heightAir tempDewpointWater temp
2018-Jan-24 12:24N 38°32' W 090°16'0 0.5
2018-Jan-24 12:00N 38°32' W 090°15'0 0.0
2018-Jan-24 11:25N 38°32' W 090°15'0 0.4
2018-Jan-24 11:00N 38°32' W 090°16'0 0.0
2018-Jan-24 10:30N 38°32' W 090°16'0 0.2
2018-Jan-24 09:50N 38°32' W 090°15'0 0.1
2018-Jan-24 09:30N 38°32' W 090°15'0 0.2
2018-Jan-24 08:56N 38°32' W 090°16'1 1.5
2018-Jan-24 08:29N 38°32' W 090°15'0 0.1
2018-Jan-24 07:58N 38°32' W 090°15'0 0.0
2018-Jan-24 07:23N 38°32' W 090°15'0 0.0
2018-Jan-24 06:57N 38°32' W 090°15'0 0.0
2018-Jan-24 05:40N 38°32' W 090°15'0 0.0
2018-Jan-24 05:15N 38°32' W 090°15'0 1.6
2018-Jan-24 04:59N 38°32' W 090°15'5 3.7
2018-Jan-24 03:41N 38°36' W 090°12'1 8.1
2018-Jan-24 03:30N 38°37' W 090°11'4 7.7
2018-Jan-24 03:00N 38°41' W 090°11'1 2.0
2018-Jan-24 02:21N 38°42' W 090°11'0 0.1
2018-Jan-24 01:59N 38°42' W 090°11'1 2.7
2018-Jan-24 01:29N 38°43' W 090°10'1 2.9
2018-Jan-24 01:00N 38°45' W 090°09'2 3.9
2018-Jan-24 00:27N 38°47' W 090°08'2 5.0
2018-Jan-24 00:00N 38°49' W 090°07'3 6.2
2018-Jan-23 23:30N 38°52' W 090°08'1 1.6
2018-Jan-23 23:00N 38°52' W 090°09'0 0.2
2018-Jan-23 22:30N 38°52' W 090°09'0 0.1
2018-Jan-23 22:00N 38°52' W 090°09'0 0.0
2018-Jan-23 21:30N 38°52' W 090°09'0 0.0
2018-Jan-23 21:00N 38°52' W 090°09'0 0.2
2018-Jan-23 20:30N 38°52' W 090°09'0 0.0
2018-Jan-23 20:00N 38°52' W 090°09'0 0.0
2018-Jan-23 19:30N 38°52' W 090°09'0 0.0
2018-Jan-23 19:00N 38°52' W 090°09'0 0.0
2018-Jan-23 18:30N 38°52' W 090°09'0 0.1
2018-Jan-23 18:00N 38°52' W 090°09'1 1.3
2018-Jan-23 17:30N 38°53' W 090°10'0 0.1
2018-Jan-23 17:00N 38°53' W 090°10'0 0.0
2018-Jan-23 16:30N 38°53' W 090°10'0 0.1
2018-Jan-23 16:00N 38°53' W 090°10'0 0.0
2018-Jan-23 15:29N 38°53' W 090°10'0 0.1
2018-Jan-23 15:00N 38°53' W 090°10'1 2.4
2018-Jan-23 14:30N 38°53' W 090°11'1 3.0
2018-Jan-23 14:00N 38°54' W 090°13'0 0.1
2018-Jan-23 13:30N 38°54' W 090°13'0 0.0
2018-Jan-23 13:00N 38°54' W 090°13'0 0.0
2018-Jan-23 12:30N 38°54' W 090°13'0 0.0
2018-Jan-23 12:00N 38°54' W 090°13'0 0.0
2018-Jan-23 11:30N 38°54' W 090°13'0 0.0
2018-Jan-23 11:00N 38°54' W 090°13'0 0.0
2018-Jan-23 10:30N 38°54' W 090°13'0 0.0
2018-Jan-23 10:00N 38°54' W 090°13'0 0.0
2018-Jan-23 09:30N 38°54' W 090°13'0 0.0
2018-Jan-23 09:00N 38°54' W 090°13'0 0.0
2018-Jan-23 08:30N 38°54' W 090°13'0 0.0
2018-Jan-23 08:00N 38°54' W 090°13'0 0.0
2018-Jan-23 07:29N 38°54' W 090°13'0 0.0
2018-Jan-23 07:00N 38°54' W 090°13'0 0.0
2018-Jan-23 06:30N 38°54' W 090°13'0 0.0
2018-Jan-23 06:00N 38°54' W 090°13'0 0.0
2018-Jan-23 05:29N 38°54' W 090°13'0 0.0
2018-Jan-23 05:00N 38°54' W 090°13'0 0.0
2018-Jan-23 04:30N 38°54' W 090°13'0 0.0
2018-Jan-23 04:00N 38°54' W 090°13'0 0.0
2018-Jan-23 03:30N 38°54' W 090°13'0 0.0
2018-Jan-23 03:00N 38°54' W 090°13'0 0.0
2018-Jan-23 02:29N 38°54' W 090°13'0 0.0
2018-Jan-23 02:00N 38°54' W 090°13'0 0.0
2018-Jan-23 01:30N 38°54' W 090°13'0 0.0
2018-Jan-23 01:00N 38°54' W 090°13'0 0.0
2018-Jan-23 00:29N 38°54' W 090°13'0 0.0
2018-Jan-23 00:00N 38°54' W 090°13'0 0.0
2018-Jan-22 23:30N 38°54' W 090°13'0 0.0
2018-Jan-22 23:00N 38°54' W 090°13'0 0.0
2018-Jan-22 22:30N 38°54' W 090°13'1 2.1
2018-Jan-22 22:00N 38°55' W 090°14'1 1.4
2018-Jan-22 21:30N 38°55' W 090°15'2 3.5
2018-Jan-22 21:00N 38°55' W 090°17'3 5.4
2018-Jan-22 20:30N 38°56' W 090°20'3 5.7
2018-Jan-22 20:00N 38°58' W 090°23'2 4.3
2018-Jan-22 19:30N 38°58' W 090°26'3 5.2
2018-Jan-22 19:00N 38°58' W 090°29'2 4.4
2018-Jan-22 18:30N 38°58' W 090°32'2 4.9
2018-Jan-22 18:00N 38°59' W 090°34'2 4.4
2018-Jan-22 17:29N 39°02' W 090°34'2 3.9
2018-Jan-22 17:00N 39°04' W 090°35'2 4.5
2018-Jan-22 16:30N 39°06' W 090°36'2 4.9
2018-Jan-22 16:00N 39°08' W 090°37'3 5.1
2018-Jan-22 15:30N 39°11' W 090°36'  

Dump ship's entire track history